createdAt,value
2019-03-27T00:00:10.798Z,974.47
2019-03-27T00:01:10.745Z,974.45
2019-03-27T00:02:10.666Z,974.47
2019-03-27T00:03:10.600Z,974.49
2019-03-27T00:04:10.530Z,974.47
2019-03-27T00:05:10.466Z,974.50
2019-03-27T00:06:10.399Z,974.46
2019-03-27T00:07:10.334Z,974.46
2019-03-27T00:08:10.265Z,974.46
2019-03-27T00:09:10.225Z,974.48
2019-03-27T00:10:10.145Z,974.47
2019-03-27T00:11:10.067Z,974.47
2019-03-27T00:12:10.004Z,974.50
2019-03-27T00:13:09.937Z,974.51
2019-03-27T00:14:09.867Z,974.48
2019-03-27T00:15:13.240Z,974.51
2019-03-27T00:16:09.733Z,974.51
2019-03-27T00:17:09.666Z,974.55
2019-03-27T00:18:09.599Z,974.51
2019-03-27T00:19:09.531Z,974.53
2019-03-27T00:20:09.468Z,974.53
2019-03-27T00:21:09.404Z,974.51
2019-03-27T00:22:09.332Z,974.49
2019-03-27T00:23:09.266Z,974.54
2019-03-27T00:24:09.201Z,974.55
2019-03-27T00:25:09.135Z,974.49
2019-03-27T00:26:09.068Z,974.51
2019-03-27T00:27:09.006Z,974.55
2019-03-27T00:28:08.934Z,974.54
2019-03-27T00:29:08.868Z,974.52
2019-03-27T00:30:08.799Z,974.50
2019-03-27T00:31:11.745Z,974.50
2019-03-27T00:32:08.666Z,974.51
2019-03-27T00:33:08.597Z,974.49
2019-03-27T00:34:08.534Z,974.47
2019-03-27T00:35:08.466Z,974.46
2019-03-27T00:36:08.398Z,974.46
2019-03-27T00:37:08.332Z,974.48
2019-03-27T00:38:08.271Z,974.51
2019-03-27T00:39:08.199Z,974.46
2019-03-27T00:40:08.132Z,974.51
2019-03-27T00:41:08.069Z,974.45
2019-03-27T00:42:07.999Z,974.48
2019-03-27T00:43:07.931Z,974.47
2019-03-27T00:44:07.865Z,974.42
2019-03-27T00:45:07.798Z,974.45
2019-03-27T00:46:07.741Z,974.44
2019-03-27T00:47:07.667Z,974.41
2019-03-27T00:48:07.596Z,974.44
2019-03-27T00:49:07.529Z,974.38
2019-03-27T00:50:07.464Z,974.43
2019-03-27T00:51:07.399Z,974.39
2019-03-27T00:52:07.331Z,974.39
2019-03-27T00:53:07.263Z,974.37
2019-03-27T00:54:07.193Z,974.39
2019-03-27T00:55:07.126Z,974.35
2019-03-27T00:56:07.061Z,974.31
2019-03-27T00:57:06.995Z,974.36
2019-03-27T00:58:06.927Z,974.30
2019-03-27T00:59:06.865Z,974.28
2019-03-27T01:00:06.796Z,974.27
2019-03-27T01:01:06.725Z,974.24
2019-03-27T01:02:06.661Z,974.23
2019-03-27T01:03:06.593Z,974.29
2019-03-27T01:04:06.527Z,974.27
2019-03-27T01:05:06.475Z,974.23
2019-03-27T01:06:06.392Z,974.24
2019-03-27T01:07:06.394Z,974.28
2019-03-27T01:08:06.260Z,974.23
2019-03-27T01:09:06.192Z,974.25
2019-03-27T01:10:06.125Z,974.18
2019-03-27T01:11:06.071Z,974.26
2019-03-27T01:12:05.994Z,974.23
2019-03-27T01:13:05.921Z,974.24
2019-03-27T01:14:05.859Z,974.22
2019-03-27T01:15:05.790Z,974.24
2019-03-27T01:16:05.723Z,974.23
2019-03-27T01:17:05.657Z,974.20
2019-03-27T01:18:05.589Z,974.21
2019-03-27T01:19:05.522Z,974.19
2019-03-27T01:20:05.455Z,974.22
2019-03-27T01:21:05.389Z,974.20
2019-03-27T01:22:05.322Z,974.22
2019-03-27T01:23:05.254Z,974.20
2019-03-27T01:24:05.186Z,974.17
2019-03-27T01:25:05.119Z,974.18
2019-03-27T01:26:05.050Z,974.15
2019-03-27T01:27:04.992Z,974.14
2019-03-27T01:28:04.915Z,974.14
2019-03-27T01:29:04.848Z,974.12
2019-03-27T01:30:04.782Z,974.12
2019-03-27T01:31:04.732Z,974.16
2019-03-27T01:32:04.656Z,974.17
2019-03-27T01:33:04.584Z,974.17
2019-03-27T01:34:04.518Z,974.17
2019-03-27T01:35:04.453Z,974.18
2019-03-27T01:36:04.383Z,974.17
2019-03-27T01:37:04.314Z,974.15
2019-03-27T01:38:04.246Z,974.11
2019-03-27T01:39:04.179Z,974.17
2019-03-27T01:40:04.113Z,974.14
2019-03-27T01:41:04.045Z,974.16
2019-03-27T01:42:03.981Z,974.12
2019-03-27T01:43:03.914Z,974.15
2019-03-27T01:44:03.846Z,974.13
2019-03-27T01:45:03.778Z,974.09
2019-03-27T01:46:03.709Z,974.11
2019-03-27T01:47:03.642Z,974.16
2019-03-27T01:48:03.583Z,974.12
2019-03-27T01:49:03.505Z,974.12
2019-03-27T01:50:03.441Z,974.10
2019-03-27T01:51:03.373Z,974.09
2019-03-27T01:52:03.304Z,974.10
2019-03-27T01:53:03.244Z,974.16
2019-03-27T01:54:03.173Z,974.11
2019-03-27T01:55:03.111Z,974.12
2019-03-27T01:56:03.036Z,974.12
2019-03-27T01:57:02.978Z,974.17
2019-03-27T01:58:02.902Z,974.15
2019-03-27T01:59:02.834Z,974.20
2019-03-27T02:00:02.768Z,974.16
2019-03-27T02:01:02.706Z,974.18
2019-03-27T02:02:02.632Z,974.19
2019-03-27T02:03:02.567Z,974.20
2019-03-27T02:04:02.498Z,974.18
2019-03-27T02:05:02.428Z,974.21
2019-03-27T02:06:02.367Z,974.20
2019-03-27T02:07:02.296Z,974.15
2019-03-27T02:08:02.229Z,974.18
2019-03-27T02:09:02.161Z,974.20
2019-03-27T02:10:02.095Z,974.19
2019-03-27T02:11:02.027Z,974.21
2019-03-27T02:12:01.968Z,974.17
2019-03-27T02:13:01.893Z,974.18
2019-03-27T02:14:01.824Z,974.19
2019-03-27T02:15:01.756Z,974.15
2019-03-27T02:16:07.067Z,974.17
2019-03-27T02:17:01.622Z,974.19
2019-03-27T02:18:01.550Z,974.17
2019-03-27T02:19:01.486Z,974.09
2019-03-27T02:20:01.429Z,974.13
2019-03-27T02:21:01.351Z,974.15
2019-03-27T02:22:01.287Z,974.09
2019-03-27T02:23:01.215Z,974.12
2019-03-27T02:24:01.151Z,974.14
2019-03-27T02:25:01.081Z,974.12
2019-03-27T02:26:01.015Z,974.15
2019-03-27T02:27:00.949Z,974.15
2019-03-27T02:28:00.878Z,974.15
2019-03-27T02:29:00.812Z,974.15
2019-03-27T02:30:00.746Z,974.14
2019-03-27T02:31:00.787Z,974.16
2019-03-27T02:32:00.612Z,974.19
2019-03-27T02:33:00.543Z,974.20
2019-03-27T02:34:00.481Z,974.22
2019-03-27T02:35:00.536Z,974.20
2019-03-27T02:36:00.352Z,974.19
2019-03-27T02:37:00.272Z,974.18
2019-03-27T02:38:00.205Z,974.19
2019-03-27T02:39:00.136Z,974.16
2019-03-27T02:40:00.096Z,974.20
2019-03-27T02:41:00.009Z,974.14
2019-03-27T02:41:59.936Z,974.14
2019-03-27T02:42:59.869Z,974.11
2019-03-27T02:43:59.801Z,974.14
2019-03-27T02:44:59.745Z,974.12
2019-03-27T02:45:59.665Z,974.11
2019-03-27T02:46:59.601Z,974.10
2019-03-27T02:47:59.540Z,974.11
2019-03-27T02:48:59.462Z,974.10
2019-03-27T02:49:59.394Z,974.13
2019-03-27T02:50:59.335Z,974.12
2019-03-27T02:51:59.259Z,974.15
2019-03-27T02:52:59.193Z,974.19
2019-03-27T02:53:59.122Z,974.24
2019-03-27T02:54:59.068Z,974.22
2019-03-27T02:55:58.989Z,974.18
2019-03-27T02:56:58.926Z,974.28
2019-03-27T02:57:58.856Z,974.26
2019-03-27T02:58:58.794Z,974.23
2019-03-27T02:59:58.720Z,974.25
2019-03-27T03:00:58.659Z,974.26
2019-03-27T03:01:58.587Z,974.24
2019-03-27T03:02:58.519Z,974.27
2019-03-27T03:03:58.449Z,974.27
2019-03-27T03:04:58.381Z,974.27
2019-03-27T03:05:58.324Z,974.26
2019-03-27T03:06:58.245Z,974.25
2019-03-27T03:07:58.178Z,974.28
2019-03-27T03:08:58.109Z,974.22
2019-03-27T03:09:58.046Z,974.21
2019-03-27T03:10:57.976Z,974.24
2019-03-27T03:11:57.909Z,974.22
2019-03-27T03:12:57.841Z,974.21
2019-03-27T03:13:57.772Z,974.23
2019-03-27T03:14:57.705Z,974.25
2019-03-27T03:15:57.638Z,974.27
2019-03-27T03:16:57.568Z,974.27
2019-03-27T03:17:57.513Z,974.23
2019-03-27T03:18:57.434Z,974.23
2019-03-27T03:19:57.368Z,974.22
2019-03-27T03:20:57.299Z,974.22
2019-03-27T03:21:57.233Z,974.21
2019-03-27T03:22:57.164Z,974.22
2019-03-27T03:23:57.097Z,974.23
2019-03-27T03:24:57.031Z,974.24
2019-03-27T03:25:56.972Z,974.22
2019-03-27T03:26:56.904Z,974.18
2019-03-27T03:27:56.826Z,974.25
2019-03-27T03:28:56.756Z,974.19
2019-03-27T03:29:56.704Z,974.19
2019-03-27T03:30:56.657Z,974.18
2019-03-27T03:31:56.576Z,974.21
2019-03-27T03:32:56.490Z,974.20
2019-03-27T03:33:56.420Z,974.23
2019-03-27T03:34:56.373Z,974.22
2019-03-27T03:35:56.289Z,974.24
2019-03-27T03:36:56.218Z,974.26
2019-03-27T03:37:56.153Z,974.27
2019-03-27T03:38:56.084Z,974.28
2019-03-27T03:39:56.019Z,974.27
2019-03-27T03:40:55.946Z,974.35
2019-03-27T03:41:55.891Z,974.30
2019-03-27T03:42:55.819Z,974.32
2019-03-27T03:43:55.747Z,974.32
2019-03-27T03:44:55.681Z,974.29
2019-03-27T03:45:55.615Z,974.32
2019-03-27T03:47:00.121Z,974.30
2019-03-27T03:47:55.479Z,974.31
2019-03-27T03:48:55.415Z,974.32
2019-03-27T03:49:55.345Z,974.28
2019-03-27T03:50:55.276Z,974.27
2019-03-27T03:51:55.207Z,974.28
2019-03-27T03:52:55.139Z,974.29
2019-03-27T03:53:55.074Z,974.29
2019-03-27T03:54:55.003Z,974.26
2019-03-27T03:55:54.938Z,974.30
2019-03-27T03:56:54.872Z,974.31
2019-03-27T03:57:54.801Z,974.32
2019-03-27T03:58:54.735Z,974.32
2019-03-27T03:59:54.675Z,974.33
2019-03-27T04:00:54.599Z,974.30
2019-03-27T04:01:54.530Z,974.29
2019-03-27T04:02:54.481Z,974.29
2019-03-27T04:03:54.394Z,974.25
2019-03-27T04:04:54.326Z,974.29
2019-03-27T04:05:54.259Z,974.27
2019-03-27T04:06:54.190Z,974.30
2019-03-27T04:07:54.157Z,974.30
2019-03-27T04:08:54.056Z,974.24
2019-03-27T04:09:54.005Z,974.25
2019-03-27T04:10:53.920Z,974.27
2019-03-27T04:11:53.854Z,974.25
2019-03-27T04:12:53.783Z,974.27
2019-03-27T04:13:53.714Z,974.26
2019-03-27T04:14:53.667Z,974.29
2019-03-27T04:15:53.578Z,974.29
2019-03-27T04:16:53.511Z,974.28
2019-03-27T04:17:53.443Z,974.31
2019-03-27T04:18:53.376Z,974.32
2019-03-27T04:19:53.308Z,974.32
2019-03-27T04:20:53.239Z,974.32
2019-03-27T04:21:53.171Z,974.34
2019-03-27T04:22:53.104Z,974.31
2019-03-27T04:23:53.033Z,974.35
2019-03-27T04:24:52.964Z,974.36
2019-03-27T04:26:08.967Z,974.35
2019-03-27T04:26:52.827Z,974.35
2019-03-27T04:27:52.762Z,974.32
2019-03-27T04:28:52.695Z,974.35
2019-03-27T04:29:52.625Z,974.32
2019-03-27T04:30:52.560Z,974.33
2019-03-27T04:31:52.500Z,974.30
2019-03-27T04:32:52.422Z,974.31
2019-03-27T04:33:52.357Z,974.28
2019-03-27T04:34:52.289Z,974.29
2019-03-27T04:35:52.216Z,974.31
2019-03-27T04:36:52.154Z,974.32
2019-03-27T04:37:52.083Z,974.33
2019-03-27T04:38:52.016Z,974.38
2019-03-27T04:39:51.948Z,974.39
2019-03-27T04:40:51.877Z,974.36
2019-03-27T04:41:51.809Z,974.37
2019-03-27T04:42:51.746Z,974.35
2019-03-27T04:43:51.675Z,974.33
2019-03-27T04:44:51.608Z,974.37
2019-03-27T04:45:51.537Z,974.37
2019-03-27T04:46:51.471Z,974.38
2019-03-27T04:47:51.403Z,974.36
2019-03-27T04:48:51.339Z,974.38
2019-03-27T04:49:51.268Z,974.38
2019-03-27T04:50:51.226Z,974.40
2019-03-27T04:51:51.132Z,974.43
2019-03-27T04:52:51.064Z,974.42
2019-03-27T04:53:50.996Z,974.45
2019-03-27T04:54:50.928Z,974.42
2019-03-27T04:55:50.861Z,974.46
2019-03-27T04:56:50.790Z,974.42
2019-03-27T04:57:50.725Z,974.41
2019-03-27T04:58:50.658Z,974.45
2019-03-27T04:59:50.591Z,974.43
2019-03-27T05:00:50.540Z,974.44
2019-03-27T05:01:50.453Z,974.46
2019-03-27T05:02:50.386Z,974.47
2019-03-27T05:03:50.334Z,974.49
2019-03-27T05:04:50.250Z,974.51
2019-03-27T05:05:50.180Z,974.51
2019-03-27T05:06:50.113Z,974.51
2019-03-27T05:07:50.047Z,974.51
2019-03-27T05:08:49.979Z,974.53
2019-03-27T05:09:49.913Z,974.56
2019-03-27T05:10:49.848Z,974.56
2019-03-27T05:11:49.776Z,974.54
2019-03-27T05:12:49.705Z,974.55
2019-03-27T05:13:49.640Z,974.56
2019-03-27T05:14:49.576Z,974.58
2019-03-27T05:15:49.504Z,974.55
2019-03-27T05:16:49.437Z,974.61
2019-03-27T05:17:49.366Z,974.60
2019-03-27T05:18:49.307Z,974.61
2019-03-27T05:19:49.235Z,974.61
2019-03-27T05:20:49.165Z,974.65
2019-03-27T05:21:49.097Z,974.65
2019-03-27T05:22:49.032Z,974.65
2019-03-27T05:23:48.962Z,974.64
2019-03-27T05:24:48.897Z,974.67
2019-03-27T05:25:48.830Z,974.67
2019-03-27T05:26:48.761Z,974.69
2019-03-27T05:27:48.694Z,974.67
2019-03-27T05:28:48.624Z,974.63
2019-03-27T05:29:48.556Z,974.69
2019-03-27T05:30:48.488Z,974.70
2019-03-27T05:31:48.424Z,974.73
2019-03-27T05:32:48.352Z,974.72
2019-03-27T05:33:48.286Z,974.72
2019-03-27T05:34:48.222Z,974.73
2019-03-27T05:35:48.152Z,974.74
2019-03-27T05:36:48.084Z,974.71
2019-03-27T05:37:48.015Z,974.73
2019-03-27T05:38:47.948Z,974.75
2019-03-27T05:39:47.883Z,974.75
2019-03-27T05:40:47.812Z,974.74
2019-03-27T05:41:47.749Z,974.78
2019-03-27T05:43:00.057Z,974.79
2019-03-27T05:43:47.627Z,974.85
2019-03-27T05:44:47.541Z,974.83
2019-03-27T05:45:47.474Z,974.81
2019-03-27T05:46:47.408Z,974.82
2019-03-27T05:47:58.898Z,974.84
2019-03-27T05:48:47.269Z,974.87
2019-03-27T05:49:47.200Z,974.86
2019-03-27T05:50:47.135Z,974.82
2019-03-27T05:51:47.080Z,974.85
2019-03-27T05:52:46.999Z,974.87
2019-03-27T05:53:46.932Z,974.88
2019-03-27T05:54:46.864Z,974.88
2019-03-27T05:55:46.799Z,974.89
2019-03-27T05:56:46.728Z,974.88
2019-03-27T05:57:46.662Z,974.91
2019-03-27T05:58:46.593Z,974.88
2019-03-27T05:59:46.526Z,974.87
2019-03-27T06:00:46.470Z,974.90
2019-03-27T06:01:46.395Z,974.90
2019-03-27T06:02:46.327Z,974.88
2019-03-27T06:03:46.259Z,974.94
2019-03-27T06:04:46.187Z,974.96
2019-03-27T06:05:46.121Z,974.95
2019-03-27T06:06:46.061Z,974.95
2019-03-27T06:07:45.989Z,974.95
2019-03-27T06:08:45.917Z,974.96
2019-03-27T06:09:45.848Z,974.97
2019-03-27T06:10:45.786Z,974.99
2019-03-27T06:11:45.721Z,974.98
2019-03-27T06:12:45.679Z,974.95
2019-03-27T06:13:45.579Z,975.00
2019-03-27T06:14:45.526Z,975.00
2019-03-27T06:15:45.449Z,975.02
2019-03-27T06:16:45.381Z,975.07
2019-03-27T06:17:45.312Z,975.05
2019-03-27T06:18:45.261Z,975.05
2019-03-27T06:19:45.176Z,975.05
2019-03-27T06:20:45.108Z,975.05
2019-03-27T06:21:45.040Z,975.06
2019-03-27T06:22:44.970Z,975.03
2019-03-27T06:23:44.908Z,975.01
2019-03-27T06:24:44.839Z,975.02
2019-03-27T06:25:44.771Z,975.01
2019-03-27T06:26:44.710Z,975.02
2019-03-27T06:27:44.639Z,975.02
2019-03-27T06:28:44.567Z,975.04
2019-03-27T06:29:44.506Z,975.04
2019-03-27T06:30:44.444Z,975.01
2019-03-27T06:31:44.366Z,974.99
2019-03-27T06:32:44.298Z,975.02
2019-03-27T06:33:44.231Z,975.06
2019-03-27T06:34:44.167Z,975.03
2019-03-27T06:35:44.096Z,975.02
2019-03-27T06:36:44.028Z,975.07
2019-03-27T06:37:43.965Z,975.06
2019-03-27T06:38:43.894Z,975.04
2019-03-27T06:39:43.826Z,975.09
2019-03-27T06:40:43.761Z,975.11
2019-03-27T06:41:43.692Z,975.12
2019-03-27T06:42:43.625Z,975.12
2019-03-27T06:43:43.563Z,975.08
2019-03-27T06:44:43.497Z,975.09
2019-03-27T06:45:43.429Z,975.06
2019-03-27T06:46:43.356Z,975.10
2019-03-27T06:47:43.289Z,975.12
2019-03-27T06:48:43.222Z,975.15
2019-03-27T06:49:43.156Z,975.13
2019-03-27T06:50:43.086Z,975.15
2019-03-27T06:51:43.023Z,975.17
2019-03-27T06:52:42.950Z,975.20
2019-03-27T06:53:42.885Z,975.20
2019-03-27T06:54:42.818Z,975.15
2019-03-27T06:55:42.753Z,975.19
2019-03-27T06:56:42.685Z,975.15
2019-03-27T06:57:42.616Z,975.19
2019-03-27T06:58:53.833Z,975.18
2019-03-27T06:59:42.482Z,975.19
2019-03-27T07:00:42.418Z,975.15
2019-03-27T07:01:42.353Z,975.20
2019-03-27T07:02:42.282Z,975.20
2019-03-27T07:03:42.242Z,975.19
2019-03-27T07:04:42.146Z,975.19
2019-03-27T07:05:42.098Z,975.21
2019-03-27T07:06:42.012Z,975.24
2019-03-27T07:07:41.946Z,975.23
2019-03-27T07:08:41.875Z,975.27
2019-03-27T07:09:42.706Z,975.29
2019-03-27T07:10:41.764Z,975.31
2019-03-27T07:11:41.686Z,975.28
2019-03-27T07:12:41.609Z,975.27
2019-03-27T07:13:41.571Z,975.24
2019-03-27T07:14:41.477Z,975.30
2019-03-27T07:15:41.413Z,975.31
2019-03-27T07:16:41.343Z,975.32
2019-03-27T07:17:41.310Z,975.31
2019-03-27T07:18:41.208Z,975.27
2019-03-27T07:19:41.143Z,975.29
2019-03-27T07:20:41.353Z,975.26
2019-03-27T07:21:41.004Z,975.21
2019-03-27T07:22:40.942Z,975.23
2019-03-27T07:23:40.872Z,975.28
2019-03-27T07:24:40.807Z,975.28
2019-03-27T07:25:40.737Z,975.31
2019-03-27T07:26:40.692Z,975.31
2019-03-27T07:27:40.606Z,975.32
2019-03-27T07:28:40.536Z,975.29
2019-03-27T07:29:40.474Z,975.34
2019-03-27T07:30:40.404Z,975.31
2019-03-27T07:31:40.338Z,975.37
2019-03-27T07:32:40.271Z,975.35
2019-03-27T07:33:40.203Z,975.36
2019-03-27T07:34:40.135Z,975.34
2019-03-27T07:35:40.067Z,975.36
2019-03-27T07:36:40.002Z,975.41
2019-03-27T07:37:39.936Z,975.42
2019-03-27T07:38:39.944Z,975.42
2019-03-27T07:39:39.806Z,975.42
2019-03-27T07:40:39.742Z,975.44
2019-03-27T07:41:39.670Z,975.46
2019-03-27T07:42:39.601Z,975.46
2019-03-27T07:43:39.540Z,975.50
2019-03-27T07:44:39.471Z,975.50
2019-03-27T07:45:39.418Z,975.55
2019-03-27T07:46:39.345Z,975.56
2019-03-27T07:47:39.273Z,975.56
2019-03-27T07:48:43.662Z,975.55
2019-03-27T07:49:39.136Z,975.59
2019-03-27T07:50:39.076Z,975.59
2019-03-27T07:51:39.006Z,975.57
2019-03-27T07:52:38.948Z,975.56
2019-03-27T07:53:38.875Z,975.59
2019-03-27T07:54:38.834Z,975.56
2019-03-27T07:55:38.741Z,975.59
2019-03-27T07:56:38.669Z,975.61
2019-03-27T07:57:38.608Z,975.60
2019-03-27T07:58:38.541Z,975.56
2019-03-27T07:59:38.475Z,975.60
2019-03-27T08:00:38.413Z,975.58
2019-03-27T08:01:38.342Z,975.59
2019-03-27T08:02:38.276Z,975.64
2019-03-27T08:03:38.209Z,975.61
2019-03-27T08:04:38.145Z,975.59
2019-03-27T08:05:38.089Z,975.60
2019-03-27T08:06:38.010Z,975.63
2019-03-27T08:07:37.944Z,975.61
2019-03-27T08:08:37.876Z,975.62
2019-03-27T08:09:37.814Z,975.58
2019-03-27T08:10:37.743Z,975.56
2019-03-27T08:11:37.726Z,975.57
2019-03-27T08:12:37.612Z,975.56
2019-03-27T08:13:37.548Z,975.54
2019-03-27T08:14:37.483Z,975.52
2019-03-27T08:15:40.602Z,975.55
2019-03-27T08:16:37.348Z,975.57
2019-03-27T08:17:37.299Z,975.55
2019-03-27T08:18:37.234Z,975.54
2019-03-27T08:19:37.149Z,975.57
2019-03-27T08:20:37.101Z,975.62
2019-03-27T08:21:37.016Z,975.63
2019-03-27T08:22:36.957Z,975.62
2019-03-27T08:23:36.937Z,975.61
2019-03-27T08:24:36.818Z,975.63
2019-03-27T08:25:36.750Z,975.62
2019-03-27T08:26:36.685Z,975.61
2019-03-27T08:27:36.616Z,975.64
2019-03-27T08:28:36.552Z,975.66
2019-03-27T08:29:36.487Z,975.67
2019-03-27T08:30:36.431Z,975.65
2019-03-27T08:31:36.481Z,975.67
2019-03-27T08:32:37.598Z,975.73
2019-03-27T08:33:36.222Z,975.76
2019-03-27T08:34:36.156Z,975.74
2019-03-27T08:35:36.095Z,975.75
2019-03-27T08:36:36.034Z,975.77
2019-03-27T08:37:35.962Z,975.77
2019-03-27T08:38:36.354Z,975.75
2019-03-27T08:39:35.830Z,975.78
2019-03-27T08:40:35.757Z,975.78
2019-03-27T08:41:35.692Z,975.76
2019-03-27T08:42:35.629Z,975.78
2019-03-27T08:43:35.564Z,975.80
2019-03-27T08:44:35.500Z,975.80
2019-03-27T08:45:35.430Z,975.81
2019-03-27T08:46:35.366Z,975.78
2019-03-27T08:47:35.299Z,975.79
2019-03-27T08:48:35.236Z,975.80
2019-03-27T08:49:35.166Z,975.77
2019-03-27T08:50:35.103Z,975.82
2019-03-27T08:51:35.037Z,975.78
2019-03-27T08:52:34.965Z,975.76
2019-03-27T08:53:34.905Z,975.75
2019-03-27T08:54:34.844Z,975.78
2019-03-27T08:55:34.775Z,975.74
2019-03-27T08:56:34.708Z,975.75
2019-03-27T08:57:34.652Z,975.76
2019-03-27T08:58:34.587Z,975.78
2019-03-27T08:59:34.524Z,975.76
2019-03-27T09:00:34.457Z,975.79
2019-03-27T09:01:34.379Z,975.83
2019-03-27T09:02:34.312Z,975.83
2019-03-27T09:03:34.251Z,975.87
2019-03-27T09:04:34.185Z,975.82
2019-03-27T09:05:34.118Z,975.86
2019-03-27T09:06:34.347Z,975.89
2019-03-27T09:07:33.989Z,975.89
2019-03-27T09:08:33.920Z,975.89
2019-03-27T09:09:33.860Z,975.90
2019-03-27T09:10:33.793Z,975.88
2019-03-27T09:11:33.731Z,975.91
2019-03-27T09:12:33.657Z,975.89
2019-03-27T09:13:33.600Z,975.85
2019-03-27T09:14:33.531Z,975.87
2019-03-27T09:15:33.463Z,975.89
2019-03-27T09:16:33.404Z,975.89
2019-03-27T09:17:33.335Z,975.87
2019-03-27T09:18:33.268Z,975.89
2019-03-27T09:19:36.150Z,975.91
2019-03-27T09:20:33.142Z,975.88
2019-03-27T09:21:33.078Z,975.86
2019-03-27T09:22:33.023Z,975.90
2019-03-27T09:23:32.943Z,975.95
2019-03-27T09:24:32.879Z,975.92
2019-03-27T09:25:32.856Z,975.92
2019-03-27T09:26:32.746Z,976.00
2019-03-27T09:27:32.685Z,975.97
2019-03-27T09:28:32.618Z,975.99
2019-03-27T09:29:32.553Z,976.05
2019-03-27T09:30:32.488Z,976.03
2019-03-27T09:31:43.914Z,976.03
2019-03-27T09:32:32.357Z,975.98
2019-03-27T09:33:32.292Z,975.98
2019-03-27T09:34:32.228Z,976.01
2019-03-27T09:35:32.172Z,976.01
2019-03-27T09:36:32.097Z,976.02
2019-03-27T09:37:32.053Z,976.04
2019-03-27T09:38:31.969Z,976.02
2019-03-27T09:39:31.905Z,976.00
2019-03-27T09:40:31.838Z,976.03
2019-03-27T09:41:31.774Z,976.01
2019-03-27T09:42:31.706Z,976.04
2019-03-27T09:43:31.659Z,976.03
2019-03-27T09:44:31.577Z,976.07
2019-03-27T09:45:31.511Z,976.04
2019-03-27T09:46:31.448Z,976.07
2019-03-27T09:47:34.470Z,976.11
2019-03-27T09:48:31.317Z,976.14
2019-03-27T09:49:31.253Z,976.13
2019-03-27T09:50:31.204Z,976.15
2019-03-27T09:51:31.126Z,976.14
2019-03-27T09:52:31.063Z,976.14
2019-03-27T09:53:30.990Z,976.12
2019-03-27T09:54:30.930Z,976.10
2019-03-27T09:55:30.866Z,976.09
2019-03-27T09:56:30.804Z,976.06
2019-03-27T09:57:30.736Z,976.09
2019-03-27T09:58:30.671Z,976.09
2019-03-27T09:59:30.603Z,976.08
2019-03-27T10:00:30.539Z,976.11
2019-03-27T10:01:30.476Z,976.10
2019-03-27T10:02:30.414Z,976.15
2019-03-27T10:03:30.354Z,976.11
2019-03-27T10:04:30.282Z,976.15
2019-03-27T10:05:30.218Z,976.09
2019-03-27T10:06:30.152Z,976.14
2019-03-27T10:07:30.090Z,976.14
2019-03-27T10:08:30.022Z,976.12
2019-03-27T10:09:29.983Z,976.12
2019-03-27T10:10:29.894Z,976.14
2019-03-27T10:11:29.828Z,976.16
2019-03-27T10:12:29.765Z,976.18
2019-03-27T10:13:29.700Z,976.10
2019-03-27T10:14:29.635Z,976.11
2019-03-27T10:15:29.569Z,976.11
2019-03-27T10:16:29.504Z,976.14
2019-03-27T10:17:29.441Z,976.15
2019-03-27T10:18:29.374Z,976.20
2019-03-27T10:19:29.315Z,976.14
2019-03-27T10:20:29.250Z,976.16
2019-03-27T10:21:29.180Z,976.12
2019-03-27T10:22:29.118Z,976.08
2019-03-27T10:23:29.053Z,976.11
2019-03-27T10:24:28.990Z,976.13
2019-03-27T10:25:28.928Z,976.13
2019-03-27T10:26:28.859Z,976.10
2019-03-27T10:27:28.795Z,976.10
2019-03-27T10:28:28.725Z,976.11
2019-03-27T10:29:28.663Z,976.08
2019-03-27T10:30:28.599Z,976.12
2019-03-27T10:31:28.609Z,976.13
2019-03-27T10:32:28.529Z,976.15
2019-03-27T10:33:28.404Z,976.14
2019-03-27T10:34:28.341Z,976.13
2019-03-27T10:35:28.278Z,976.12
2019-03-27T10:36:28.211Z,976.10
2019-03-27T10:37:28.150Z,976.10
2019-03-27T10:38:28.082Z,976.12
2019-03-27T10:39:28.020Z,976.18
2019-03-27T10:40:27.952Z,976.13
2019-03-27T10:41:27.891Z,976.16
2019-03-27T10:42:27.826Z,976.13
2019-03-27T10:43:27.764Z,976.13
2019-03-27T10:44:27.695Z,976.14
2019-03-27T10:45:27.631Z,976.22
2019-03-27T10:46:27.569Z,976.17
2019-03-27T10:47:27.508Z,976.13
2019-03-27T10:48:27.437Z,976.17
2019-03-27T10:49:27.375Z,976.14
2019-03-27T10:50:27.309Z,976.12
2019-03-27T10:51:27.248Z,976.10
2019-03-27T10:52:27.179Z,976.12
2019-03-27T10:53:27.115Z,976.09
2019-03-27T10:54:27.051Z,976.08
2019-03-27T10:55:26.987Z,976.07
2019-03-27T10:56:26.925Z,976.00
2019-03-27T10:57:26.858Z,976.03
2019-03-27T10:58:26.794Z,976.00
2019-03-27T10:59:26.730Z,976.06
2019-03-27T11:00:26.666Z,976.09
2019-03-27T11:01:26.613Z,976.03
2019-03-27T11:02:26.537Z,976.02
2019-03-27T11:03:26.471Z,976.04
2019-03-27T11:04:26.411Z,976.04
2019-03-27T11:05:26.340Z,975.99
2019-03-27T11:06:26.278Z,976.06
2019-03-27T11:07:26.218Z,976.02
2019-03-27T11:08:26.171Z,976.03
2019-03-27T11:09:26.087Z,976.01
2019-03-27T11:10:26.023Z,976.00
2019-03-27T11:11:25.959Z,976.00
2019-03-27T11:12:25.908Z,976.08
2019-03-27T11:13:25.830Z,976.05
2019-03-27T11:14:37.161Z,976.03
2019-03-27T11:15:25.705Z,976.05
2019-03-27T11:16:25.650Z,976.03
2019-03-27T11:17:25.579Z,976.05
2019-03-27T11:18:25.510Z,976.07
2019-03-27T11:19:25.448Z,976.03
2019-03-27T11:20:30.809Z,976.02
2019-03-27T11:21:25.320Z,976.03
2019-03-27T11:22:25.256Z,976.06
2019-03-27T11:23:25.194Z,976.05
2019-03-27T11:24:25.129Z,976.01
2019-03-27T11:25:25.065Z,975.99
2019-03-27T11:26:25.001Z,976.00
2019-03-27T11:27:24.950Z,976.04
2019-03-27T11:28:24.872Z,976.03
2019-03-27T11:29:24.816Z,976.01
2019-03-27T11:30:24.744Z,976.03
2019-03-27T11:31:24.696Z,976.01
2019-03-27T11:32:24.704Z,976.05
2019-03-27T11:33:24.554Z,975.99
2019-03-27T11:34:24.488Z,975.97
2019-03-27T11:35:24.440Z,975.96
2019-03-27T11:36:24.363Z,975.98
2019-03-27T11:37:24.295Z,975.98
2019-03-27T11:38:24.233Z,975.93
2019-03-27T11:39:24.851Z,975.92
2019-03-27T11:40:24.104Z,975.93
2019-03-27T11:41:24.040Z,975.98
2019-03-27T11:42:23.990Z,975.99
2019-03-27T11:43:23.913Z,975.98
2019-03-27T11:44:23.844Z,975.95
2019-03-27T11:45:23.781Z,975.98
2019-03-27T11:46:23.718Z,975.99
2019-03-27T11:47:23.653Z,975.98
2019-03-27T11:48:23.587Z,975.96
2019-03-27T11:49:23.526Z,976.00
2019-03-27T11:50:23.462Z,976.02
2019-03-27T11:51:23.395Z,975.96
2019-03-27T11:52:23.360Z,975.95
2019-03-27T11:53:23.268Z,975.96
2019-03-27T11:54:23.207Z,975.93
2019-03-27T11:55:23.141Z,975.96
2019-03-27T11:56:23.078Z,975.95
2019-03-27T11:57:23.014Z,975.96
2019-03-27T11:58:22.947Z,975.94
2019-03-27T11:59:22.882Z,975.90
2019-03-27T12:00:22.819Z,975.95
2019-03-27T12:01:22.754Z,975.90
2019-03-27T12:02:22.691Z,975.90
2019-03-27T12:03:22.636Z,975.95
2019-03-27T12:04:22.565Z,975.90
2019-03-27T12:05:22.511Z,975.93
2019-03-27T12:06:22.549Z,975.98
2019-03-27T12:07:22.368Z,975.96
2019-03-27T12:08:22.308Z,975.94
2019-03-27T12:09:22.241Z,975.91
2019-03-27T12:10:22.178Z,975.93
2019-03-27T12:11:22.113Z,975.91
2019-03-27T12:12:22.052Z,975.87
2019-03-27T12:13:21.987Z,975.84
2019-03-27T12:14:21.923Z,975.83
2019-03-27T12:15:21.860Z,975.81
2019-03-27T12:16:21.793Z,975.82
2019-03-27T12:17:21.733Z,975.86
2019-03-27T12:18:21.668Z,975.88
2019-03-27T12:19:21.610Z,975.90
2019-03-27T12:20:21.540Z,975.86
2019-03-27T12:21:21.474Z,975.89
2019-03-27T12:22:21.411Z,975.87
2019-03-27T12:23:21.349Z,975.83
2019-03-27T12:24:21.285Z,975.81
2019-03-27T12:25:21.220Z,975.88
2019-03-27T12:26:21.155Z,975.82
2019-03-27T12:27:21.093Z,975.83